Time;durP1;ratioP1;P1;durP2;ratioP2;P2;SDS_P1;SDS_P2;PMS_P1;PMS_P2;Temp;Humidity;BMP_temperature;BMP_pressure;BME280_temperature;BME280_humidity;BME280_pressure;Samples;Min_cycle;Max_cycle;Signal;HPM_P1;HPM_P2
2022/10/04 00:01:28;;;;;;;2.03;1.10;;;;;;;8.72;82.61;95669.89;1783385;80;20983;-67
2022/10/04 00:04:22;;;;;;;2.97;1.43;;;;;;;8.66;81.48;95675.19;1758687;80;20986;-67
2022/10/04 00:07:02;;;;;;;1.82;1.12;;;;;;;8.69;81.52;95672.52;1784697;80;21027;-66
2022/10/04 00:09:37;;;;;;;1.50;1.00;;;;;;;8.69;81.65;95673.84;1785175;80;20987;-67
2022/10/04 00:12:06;;;;;;;1.75;1.15;;;;;;;8.71;80.39;95679.97;1784269;80;20988;-67
2022/10/04 00:14:37;;;;;;;1.47;1.07;;;;;;;8.74;79.89;95680.37;1784819;80;20998;-67
2022/10/04 00:17:15;;;;;;;1.87;1.20;;;;;;;8.75;79.65;95679.05;1784546;80;20987;-67
2022/10/04 00:19:50;;;;;;;3.20;1.13;;;;;;;8.79;79.60;95682.52;1784687;80;21053;-67
2022/10/04 00:22:24;;;;;;;1.90;1.27;;;;;;;8.81;78.85;95678.12;1769172;80;21042;-67
2022/10/04 00:25:08;;;;;;;3.10;1.27;;;;;;;8.81;78.84;95676.35;1768912;81;21014;-67
2022/10/04 00:27:37;;;;;;;1.62;1.15;;;;;;;8.83;78.77;95678.53;1728707;83;21021;-67
2022/10/04 00:30:15;;;;;;;1.72;1.30;;;;;;;8.82;79.19;95682.06;1716535;84;21003;-67
2022/10/04 00:32:47;;;;;;;1.10;1.00;;;;;;;8.87;79.56;95681.56;1716106;84;21083;-67
2022/10/04 00:35:31;;;;;;;3.00;1.50;;;;;;;8.86;79.67;95669.73;1713704;84;21023;-66
2022/10/04 00:38:14;;;;;;;2.20;1.12;;;;;;;8.87;80.25;95676.30;1716064;84;21223;-66
2022/10/04 00:40:59;;;;;;;2.02;1.22;;;;;;;8.82;81.95;95681.16;1716030;84;21008;-67
2022/10/04 00:43:34;;;;;;;5.12;1.10;;;;;;;8.76;81.29;95674.21;1716503;83;21051;-66
2022/10/04 00:46:08;;;;;;;1.67;1.05;;;;;;;8.73;82.24;95670.75;1707621;84;21043;-67
2022/10/04 00:48:48;;;;;;;5.10;2.05;;;;;;;8.75;81.46;95673.80;1716217;83;21529;-66
2022/10/04 00:51:52;;;;;;;1.62;1.25;;;;;;;8.82;82.84;95671.95;1716594;84;21059;-67
2022/10/04 00:54:43;;;;;;;1.30;1.10;;;;;;;8.80;82.51;95670.67;1716115;84;21031;-67
2022/10/04 00:57:15;;;;;;;2.67;1.20;;;;;;;8.79;83.17;95668.91;1716327;83;21043;-67
2022/10/04 00:59:52;;;;;;;1.40;1.27;;;;;;;8.80;82.64;95665.86;1715960;83;21039;-67
2022/10/04 01:02:37;;;;;;;1.20;0.85;;;;;;;8.80;81.23;95663.23;1716360;83;21011;-67
2022/10/04 01:05:22;;;;;;;1.60;1.50;;;;;;;8.82;82.16;95668.00;1690111;84;21043;-67
2022/10/04 01:07:59;;;;;;;2.70;1.37;;;;;;;8.81;81.53;95661.88;1712987;84;21043;-67
2022/10/04 01:10:35;;;;;;;1.62;1.10;;;;;;;8.87;81.81;95671.04;1663143;84;21047;-66
2022/10/04 01:13:27;;;;;;;1.47;0.90;;;;;;;8.94;82.63;95665.70;1716631;84;21017;-66
2022/10/04 01:16:18;;;;;;;3.10;1.52;;;;;;;8.98;81.08;95662.16;1716875;83;21039;-66
2022/10/04 01:18:46;;;;;;;2.60;1.20;;;;;;;8.99;82.10;95668.70;1716278;83;21027;-66
2022/10/04 01:21:25;;;;;;;2.33;1.20;;;;;;;9.04;82.01;95673.91;1729456;83;21026;-67
2022/10/04 01:24:00;;;;;;;1.52;1.25;;;;;;;9.00;81.82;95672.23;1732666;83;21038;-66
2022/10/04 01:26:36;;;;;;;1.50;1.12;;;;;;;8.97;80.48;95665.23;1732869;83;21027;-67
2022/10/04 01:29:17;;;;;;;2.25;1.37;;;;;;;8.97;80.83;95661.70;1732585;82;21516;-66
2022/10/04 01:31:47;;;;;;;2.47;1.57;;;;;;;8.97;81.22;95665.23;1732775;83;20999;-67
2022/10/04 01:34:18;;;;;;;2.50;1.75;;;;;;;8.93;81.29;95659.56;1732149;83;21074;-67
2022/10/04 01:36:47;;;;;;;1.80;1.47;;;;;;;8.97;81.33;95665.23;1732574;82;21038;-67
2022/10/04 01:39:16;;;;;;;3.65;1.40;;;;;;;8.93;81.50;95658.25;1732645;83;21504;-67
2022/10/04 01:41:48;;;;;;;2.17;1.70;;;;;;;8.93;81.28;95666.59;1732740;83;21098;-67
2022/10/04 01:44:58;;;;;;;3.22;1.60;;;;;;;8.92;81.28;95666.15;1732883;83;20975;-67
2022/10/04 01:47:36;;;;;;;3.15;1.40;;;;;;;8.95;80.55;95664.37;1732374;83;21040;-67
2022/10/04 01:50:14;;;;;;;2.20;1.57;;;;;;;8.99;79.83;95669.14;1732419;83;21532;-67
2022/10/04 01:52:48;;;;;;;1.27;1.17;;;;;;;8.99;80.41;95671.78;1732096;82;21062;-67
2022/10/04 01:55:34;;;;;;;2.35;1.32;;;;;;;8.96;81.06;95674.45;1732860;83;21026;-66
2022/10/04 01:58:15;;;;;;;2.55;1.15;;;;;;;8.90;80.16;95671.45;1732602;83;21042;-66
2022/10/04 02:00:56;;;;;;;2.42;1.67;;;;;;;8.93;81.11;95677.13;1718660;83;21074;-67
2022/10/04 02:03:43;;;;;;;3.75;2.00;;;;;;;8.91;81.65;95676.27;1731719;83;21095;-66
2022/10/04 02:06:12;;;;;;;2.80;1.60;;;;;;;8.88;81.59;95677.17;1731425;83;21070;-67
2022/10/04 02:08:46;;;;;;;1.67;1.17;;;;;;;8.83;80.30;95665.82;1732821;83;21499;-66
2022/10/04 02:11:19;;;;;;;1.83;1.30;;;;;;;8.80;80.59;95668.05;1732669;83;21026;-67
2022/10/04 02:13:50;;;;;;;3.00;1.50;;;;;;;8.78;81.17;95667.18;1732957;83;21078;-67
2022/10/04 02:16:19;;;;;;;3.22;1.50;;;;;;;8.78;81.18;95677.70;1732933;83;21069;-67
2022/10/04 02:18:46;;;;;;;4.10;1.12;;;;;;;8.77;81.66;95679.92;1732543;82;21034;-67
2022/10/04 02:21:15;;;;;;;2.73;1.70;;;;;;;8.76;81.38;95682.55;1731509;82;21098;-67
2022/10/04 02:23:43;;;;;;;3.10;1.72;;;;;;;8.75;82.20;95680.82;1729520;82;21015;-67
2022/10/04 02:26:11;;;;;;;3.85;1.35;;;;;;;8.77;82.11;95679.92;1729999;83;21049;-67
2022/10/04 02:28:40;;;;;;;2.92;1.67;;;;;;;8.77;82.04;95682.97;1729671;83;21051;-66
2022/10/04 02:33:58;;;;;;;2.92;1.40;;;;;;;8.79;82.43;95690.41;1729588;82;21059;-67
2022/10/04 02:36:28;;;;;;;4.50;1.30;;;;;;;8.77;82.66;95686.50;1729577;83;21488;-67
2022/10/04 02:39:14;;;;;;;2.87;1.27;;;;;;;8.82;82.92;95689.05;1729386;83;20991;-66
2022/10/04 02:41:51;;;;;;;3.15;1.60;;;;;;;8.83;82.57;95685.55;1729416;83;21019;-66
2022/10/04 02:44:33;;;;;;;3.00;1.22;;;;;;;8.79;83.04;95688.64;1729622;83;21062;-66
2022/10/04 02:47:20;;;;;;;2.50;1.37;;;;;;;8.83;83.46;95685.55;1729047;83;21536;-67
2022/10/04 02:50:07;;;;;;;5.05;1.52;;;;;;;8.85;83.48;95679.39;1729667;83;20987;-67
2022/10/04 02:52:44;;;;;;;1.57;1.30;;;;;;;8.82;83.35;95687.73;1729486;83;20984;-67
2022/10/04 02:55:16;;;;;;;3.77;1.30;;;;;;;8.78;83.64;95689.55;1729577;83;21492;-67
2022/10/04 02:57:44;;;;;;;3.35;1.40;;;;;;;8.79;83.55;95686.46;1729608;82;21100;-67
2022/10/04 03:00:19;;;;;;;2.35;1.40;;;;;;;8.75;83.42;95680.37;1729267;83;21089;-67
2022/10/04 03:03:10;;;;;;;3.77;1.70;;;;;;;8.76;83.76;95674.66;1729711;83;20990;-67
2022/10/04 03:05:39;;;;;;;2.70;1.40;;;;;;;8.77;83.96;95686.91;1729547;83;21018;-65
2022/10/04 03:08:06;;;;;;;3.05;1.72;;;;;;;8.71;83.42;95683.91;1729691;83;20982;-67
2022/10/04 03:10:34;;;;;;;2.15;1.70;;;;;;;8.63;83.74;95687.93;1729523;83;21512;-66
2022/10/04 03:13:03;;;;;;;2.53;1.30;;;;;;;8.65;84.10;95697.13;1729388;83;21476;-67
2022/10/04 03:15:31;;;;;;;1.67;1.35;;;;;;;8.61;83.63;95696.72;1729326;83;21580;-67
2022/10/04 03:17:59;;;;;;;2.20;1.60;;;;;;;8.60;83.74;95685.78;1729484;83;21007;-66
2022/10/04 03:20:27;;;;;;;2.67;1.50;;;;;;;8.56;83.82;95691.50;1729194;83;21003;-66
2022/10/04 03:22:55;;;;;;;4.87;1.72;;;;;;;8.59;83.96;95689.28;1729178;83;21023;-67
2022/10/04 03:25:29;;;;;;;1.73;1.40;;;;;;;8.65;84.17;95693.19;1729660;83;21043;-67
2022/10/04 03:28:00;;;;;;;1.80;1.63;;;;;;;8.66;83.69;95689.66;1729453;82;20986;-67
2022/10/04 03:30:27;;;;;;;4.92;1.87;;;;;;;8.57;83.87;95691.95;1729470;83;21054;-67
2022/10/04 03:32:55;;;;;;;4.10;2.08;;;;;;;8.58;83.70;95693.68;1729359;83;21002;-67
2022/10/04 03:35:37;;;;;;;5.43;3.00;;;;;;;8.59;83.61;95695.86;1729231;83;21042;-67
2022/10/04 03:38:10;;;;;;;2.50;1.50;;;;;;;8.54;83.52;95701.19;1729412;83;21035;-67
2022/10/04 03:40:41;;;;;;;3.22;1.50;;;;;;;8.60;84.08;95696.31;1729699;83;21067;-66
2022/10/04 03:43:14;;;;;;;2.20;1.67;;;;;;;8.61;84.03;95697.59;1729666;82;21007;-67
2022/10/04 03:45:41;;;;;;;4.08;2.40;;;;;;;8.59;83.90;95696.75;1729604;83;21022;-67
2022/10/04 03:48:12;;;;;;;4.17;2.67;;;;;;;8.60;84.36;95701.12;1729361;83;21035;-66
2022/10/04 03:50:46;;;;;;;2.83;1.90;;;;;;;8.71;84.91;95701.01;1726910;83;21468;-67
2022/10/04 03:53:35;;;;;;;2.80;2.10;;;;;;;8.66;83.64;95693.16;1728925;83;21046;-66
2022/10/04 03:56:23;;;;;;;4.67;2.10;;;;;;;8.55;83.98;95700.28;1729361;82;20991;-67
2022/10/04 03:58:51;;;;;;;3.40;1.90;;;;;;;8.55;83.91;95698.11;1729663;83;21022;-67
2022/10/04 04:01:45;;;;;;;3.10;1.90;;;;;;;8.50;84.29;95693.33;1729527;82;21520;-66
2022/10/04 04:04:23;;;;;;;2.05;1.67;;;;;;;8.44;84.29;95703.44;1729578;83;21417;-67
2022/10/04 04:07:13;;;;;;;10.40;7.07;;;;;;;8.33;84.62;95710.08;1729540;82;20991;-67
2022/10/04 04:10:06;;;;;;;4.10;2.57;;;;;;;8.28;84.82;95703.98;1729493;83;21054;-67
2022/10/04 04:12:45;;;;;;;2.33;2.00;;;;;;;8.24;84.68;95705.78;1728592;83;21018;-67
2022/10/04 04:15:14;;;;;;;4.47;2.43;;;;;;;8.08;84.60;95692.30;1729196;83;21021;-67
2022/10/04 04:17:45;;;;;;;3.20;2.37;;;;;;;8.14;85.25;95711.09;1729227;82;21038;-67
2022/10/04 04:20:24;;;;;;;3.17;2.40;;;;;;;8.13;86.02;95711.54;1729466;83;21051;-67
2022/10/04 04:23:12;;;;;;;2.33;1.50;;;;;;;8.11;86.11;95708.49;1731690;82;21021;-66
2022/10/04 04:25:43;;;;;;;3.50;1.50;;;;;;;8.06;85.40;95711.14;1732649;83;21042;-66
2022/10/04 04:28:39;;;;;;;4.47;2.20;;;;;;;8.06;85.18;95705.02;1731620;83;21046;-66
2022/10/04 04:31:17;;;;;;;3.60;2.10;;;;;;;8.03;85.33;95715.12;1732643;82;21057;-66
2022/10/04 04:33:59;;;;;;;2.87;1.90;;;;;;;8.00;86.03;95715.14;1732032;83;21054;-66
2022/10/04 04:36:30;;;;;;;4.50;2.10;;;;;;;7.99;86.77;95716.91;1732334;83;21054;-66
2022/10/04 04:39:35;;;;;;;2.50;2.10;;;;;;;7.97;86.81;95726.55;1732604;83;21002;-67
2022/10/04 04:42:22;;;;;;;3.00;2.30;;;;;;;8.01;86.80;95724.76;1732533;83;21066;-66
2022/10/04 04:45:04;;;;;;;3.73;2.20;;;;;;;8.04;86.73;95733.96;1732845;83;21042;-67
2022/10/04 04:47:39;;;;;;;3.20;2.13;;;;;;;8.08;86.83;95734.35;1732471;83;21034;-66
2022/10/04 04:50:14;;;;;;;5.20;3.03;;;;;;;8.13;87.04;95733.88;1732544;83;20971;-68
2022/10/04 04:52:46;;;;;;;6.87;3.80;;;;;;;8.15;86.66;95733.88;1732823;82;20995;-67
2022/10/04 04:55:22;;;;;;;44.55;17.15;;;;;;;8.10;86.45;95735.22;1732475;83;21042;-67
2022/10/04 04:57:52;;;;;;;35.73;14.93;;;;;;;8.08;86.05;95735.66;1732999;82;21026;-66
2022/10/04 05:00:26;;;;;;;41.43;17.10;;;;;;;8.18;86.99;95740.42;1732065;83;21526;-67
2022/10/04 05:02:59;;;;;;;33.97;15.10;;;;;;;8.31;87.33;95741.20;1707619;83;21094;-68
2022/10/04 05:05:31;;;;;;;13.90;8.63;;;;;;;8.44;87.37;95742.46;1732237;83;20963;-65
2022/10/04 05:08:21;;;;;;;10.53;5.30;;;;;;;8.50;86.93;95741.53;1731911;82;21111;-74
2022/10/04 05:10:59;;;;;;;15.90;7.53;;;;;;;8.57;86.60;95743.69;1731802;83;21016;-73
2022/10/04 05:13:42;;;;;;;10.55;6.65;;;;;;;8.55;85.99;95738.42;1727247;83;21010;-76
2022/10/04 05:16:17;;;;;;;9.18;6.12;;;;;;;8.59;86.40;95745.41;1732453;83;21089;-70
2022/10/04 05:18:45;;;;;;;8.78;6.12;;;;;;;8.73;86.37;95743.96;1731752;82;21607;-70
2022/10/04 05:21:26;;;;;;;12.85;7.15;;;;;;;8.80;86.13;95746.11;1731363;83;21152;-69
2022/10/04 05:23:56;;;;;;;19.05;7.35;;;;;;;8.91;86.18;95746.86;1731558;83;21583;-67
2022/10/04 05:26:29;;;;;;;8.20;6.50;;;;;;;8.98;85.53;95751.19;1732386;83;21070;-67
2022/10/04 05:28:58;;;;;;;;;;;;;;;9.06;85.85;95749.34;1734152;83;21026;-69
2022/10/04 05:32:01;;;;;;;7.50;4.95;;;;;;;9.18;85.47;95753.61;1732613;82;20109;-72
2022/10/04 05:34:38;;;;;;;11.12;4.00;;;;;;;9.17;84.99;95749.67;1731342;83;21062;-69
2022/10/04 05:37:45;;;;;;;6.72;3.85;;;;;;;9.27;85.09;95753.94;1732645;82;20991;-68
2022/10/04 05:40:18;;;;;;;7.67;4.87;;;;;;;9.27;84.43;95749.58;1732080;83;20999;-68
2022/10/04 05:42:46;;;;;;;7.58;2.50;;;;;;;9.33;84.44;95767.52;1732430;83;21604;-70
2022/10/04 05:45:23;;;;;;;8.28;2.83;;;;;;;9.41;84.67;95765.66;1731944;83;21093;-68
2022/10/04 05:47:53;;;;;;;6.25;2.55;;;;;;;9.45;84.19;95773.52;1731721;82;21559;-66
2022/10/04 05:50:34;;;;;;;8.48;2.70;;;;;;;9.48;84.01;95777.87;1731707;82;21018;-70
2022/10/04 05:53:23;;;;;;;7.08;2.40;;;;;;;9.47;83.07;95785.33;1732806;82;20998;-70
2022/10/04 05:56:31;;;;;;;6.22;2.77;;;;;;;9.44;83.08;95787.55;1727517;83;21046;-72
2022/10/04 05:59:48;;;;;;;7.92;2.90;;;;;;;9.44;82.90;95782.73;1730696;83;21041;-68
2022/10/04 06:02:35;;;;;;;5.08;2.90;;;;;;;9.40;82.81;95796.81;1731355;83;21077;-76
2022/10/04 06:05:15;;;;;;;6.85;3.75;;;;;;;9.37;82.97;95798.17;1731058;83;21072;-78
2022/10/04 06:07:53;;;;;;;8.58;4.05;;;;;;;9.31;83.05;95796.03;1732018;83;21011;-70
2022/10/04 06:10:51;;;;;;;4.72;3.55;;;;;;;9.28;83.53;95807.92;1731536;82;21579;-76
2022/10/04 06:13:50;;;;;;;4.85;3.25;;;;;;;9.22;83.76;95804.05;1732088;82;21508;-71
2022/10/04 06:16:39;;;;;;;6.12;4.08;;;;;;;9.21;83.88;95808.86;1731180;83;21592;-69
2022/10/04 06:19:27;;;;;;;4.87;2.30;;;;;;;9.22;83.99;95807.99;1732055;83;21039;-71
2022/10/04 06:22:19;;;;;;;5.53;2.58;;;;;;;9.16;83.97;95809.34;1731170;83;21050;-70
2022/10/04 06:25:10;;;;;;;5.78;3.17;;;;;;;9.18;83.90;95809.34;1729187;83;21011;-76
2022/10/04 06:27:52;;;;;;;5.15;2.50;;;;;;;9.14;83.91;95816.38;1721012;81;21486;-70
2022/10/04 06:30:20;;;;;;;4.55;2.60;;;;;;;9.14;84.43;95816.83;1710682;83;21383;-75
2022/10/04 06:33:23;;;;;;;6.65;2.62;;;;;;;9.14;83.95;95825.59;1713089;83;20973;-68
2022/10/04 06:36:10;;;;;;;4.45;2.83;;;;;;;9.18;83.76;95826.02;1712635;83;22546;-72
2022/10/04 06:39:01;;;;;;;19.90;12.10;;;;;;;9.22;83.64;95833.00;1716063;83;21138;-67
2022/10/04 06:41:45;;;;;;;4.97;2.67;;;;;;;9.28;83.62;95833.38;1699046;83;21075;-67
2022/10/04 06:44:27;;;;;;;6.67;2.67;;;;;;;9.33;83.27;95828.94;1722187;83;21032;-67
2022/10/04 06:47:06;;;;;;;6.65;3.12;;;;;;;9.46;84.26;95831.87;1728224;83;21111;-69
2022/10/04 06:50:11;;;;;;;3.50;2.85;;;;;;;9.63;84.06;95834.78;1715739;83;21112;-73
2022/10/04 06:53:15;;;;;;;7.40;2.67;;;;;;;9.75;83.91;95843.84;1727821;83;20984;-73
2022/10/04 06:56:18;;;;;;;5.87;4.10;;;;;;;9.88;83.93;95839.33;1727785;83;21573;-72
2022/10/04 06:59:12;;;;;;;11.60;6.40;;;;;;;10.02;83.47;95839.14;1728828;83;21075;-71
2022/10/04 07:01:53;;;;;;;10.72;5.35;;;;;;;10.15;83.28;95842.04;1728187;83;22249;-69
2022/10/04 07:04:56;;;;;;;8.50;4.58;;;;;;;10.25;82.98;95846.30;1727569;83;21079;-69
2022/10/04 07:07:36;;;;;;;6.42;3.70;;;;;;;10.35;82.33;95847.09;1728064;82;21083;-69
2022/10/04 07:10:37;;;;;;;6.45;3.25;;;;;;;10.42;82.32;95848.75;1727265;83;21067;-70
2022/10/04 07:13:39;;;;;;;4.35;3.33;;;;;;;10.55;82.58;95855.59;1728110;83;21126;-67
2022/10/04 07:16:36;;;;;;;8.40;5.35;;;;;;;10.71;81.90;95853.63;1728332;83;21106;-67
2022/10/04 07:19:34;;;;;;;9.18;5.10;;;;;;;10.77;81.02;95856.61;1728854;82;21025;-74
2022/10/04 07:22:11;;;;;;;6.80;3.95;;;;;;;10.79;80.95;95856.14;1728115;83;21062;-71
2022/10/04 07:24:52;;;;;;;5.60;3.85;;;;;;;10.90;81.58;95848.91;1726242;83;21620;-69
2022/10/04 07:27:29;;;;;;;5.80;3.67;;;;;;;11.02;81.39;95856.64;1726615;83;21029;-71
2022/10/04 07:30:02;;;;;;;5.22;3.67;;;;;;;11.13;81.03;95859.55;1708736;83;21045;-75
2022/10/04 07:32:35;;;;;;;8.73;3.92;;;;;;;11.18;80.93;95859.03;1724458;83;21082;-74
2022/10/04 07:35:16;;;;;;;4.40;3.27;;;;;;;11.17;80.14;95862.58;1727216;83;21071;-66
2022/10/04 07:37:57;;;;;;;9.60;3.80;;;;;;;11.10;79.50;95865.76;1726732;83;21075;-67
2022/10/04 07:40:40;;;;;;;9.95;3.80;;;;;;;10.98;78.79;95868.59;1726893;83;21604;-69
2022/10/04 07:43:27;;;;;;;7.83;4.12;;;;;;;10.87;78.97;95866.58;1727202;83;21036;-73
2022/10/04 07:46:05;;;;;;;8.25;3.62;;;;;;;10.82;79.23;95869.28;1725029;83;21088;-75
2022/10/04 07:48:32;;;;;;;4.40;3.25;;;;;;;10.82;79.70;95871.92;1726103;83;21489;-67
2022/10/04 07:51:19;;;;;;;8.50;4.20;;;;;;;10.81;79.29;95871.52;1726629;83;21143;-75
2022/10/04 07:53:56;;;;;;;6.28;4.15;;;;;;;10.79;78.59;95871.98;1727225;82;21012;-72
2022/10/04 07:56:37;;;;;;;7.35;4.20;;;;;;;10.76;78.70;95877.28;1726545;83;21143;-69
2022/10/04 07:59:34;;;;;;;10.85;4.28;;;;;;;10.69;78.41;95886.20;1684980;83;21065;-74
2022/10/04 08:02:35;;;;;;;5.62;4.08;;;;;;;10.63;78.67;95887.59;1601550;89;21128;-67
2022/10/04 08:05:33;;;;;;;10.23;4.33;;;;;;;10.50;78.70;95890.41;1602845;89;21044;-69
2022/10/04 08:08:43;;;;;;;2.20;1.70;;;;;;;10.42;79.17;95894.05;1673545;85;21089;-72
2022/10/04 08:11:42;;;;;;;4.03;1.92;;;;;;;10.33;79.23;95890.65;1680283;85;21197;-74
2022/10/04 08:14:40;;;;;;;2.10;1.90;;;;;;;10.23;79.22;95882.81;1684486;85;21124;-69
2022/10/04 08:17:47;;;;;;;4.37;2.77;;;;;;;10.18;79.74;95890.81;1653471;86;22179;-69
2022/10/04 08:20:45;;;;;;;4.05;2.30;;;;;;;10.24;80.40;95894.67;1680515;85;21057;-73
2022/10/04 08:23:46;;;;;;;3.75;2.08;;;;;;;10.32;80.11;95894.16;1679379;84;21089;-73
2022/10/04 08:26:39;;;;;;;2.83;1.90;;;;;;;10.43;79.76;95887.86;1715677;84;21327;-70
2022/10/04 08:29:42;;;;;;;3.77;2.10;;;;;;;10.61;78.81;95888.95;1703448;84;21041;-71
2022/10/04 08:32:32;;;;;;;3.92;2.45;;;;;;;10.88;79.91;95890.30;1720839;82;21057;-69
2022/10/04 08:35:30;;;;;;;3.87;1.92;;;;;;;11.19;78.50;95891.17;1754124;82;20982;-72
2022/10/04 08:38:29;;;;;;;3.30;2.00;;;;;;;11.36;77.42;95893.50;1749730;82;20995;-69
2022/10/04 08:41:17;;;;;;;4.30;1.30;;;;;;;11.64;77.83;95889.50;1753644;82;21105;-71
2022/10/04 08:44:22;;;;;;;1.87;1.57;;;;;;;11.80;73.35;95894.51;1754150;82;21017;-69
2022/10/04 08:47:34;;;;;;;2.80;1.60;;;;;;;11.86;74.80;95900.98;1753714;82;21050;-69
2022/10/04 08:50:17;;;;;;;3.30;1.87;;;;;;;11.96;75.88;95893.80;1753481;82;21571;-70
2022/10/04 08:52:50;;;;;;;;;;;;;;;12.02;74.28;95898.52;1691581;84;21450;-69
2022/10/04 08:55:57;;;;;;;3.10;2.10;;;;;;;11.95;73.80;95899.54;1753530;82;20176;-69
2022/10/04 08:59:01;;;;;;;6.42;4.65;;;;;;;11.97;75.51;95903.03;1753494;81;21098;-69
2022/10/04 09:02:05;;;;;;;3.20;2.00;;;;;;;12.07;75.32;95902.38;1753578;82;21146;-64
2022/10/04 09:04:52;;;;;;;2.15;1.65;;;;;;;12.07;74.37;95903.70;1752828;82;21543;-68
2022/10/04 09:07:48;;;;;;;2.92;1.32;;;;;;;11.96;73.61;95907.02;1740798;82;21072;-69
2022/10/04 09:10:39;;;;;;;2.83;1.70;;;;;;;11.82;72.74;95911.22;1693048;84;21103;-68
2022/10/04 09:13:24;;;;;;;2.27;1.37;;;;;;;11.66;71.86;95909.28;1693632;85;21560;-68
2022/10/04 09:15:58;;;;;;;4.70;2.10;;;;;;;11.43;70.82;95922.44;1716086;83;21039;-68
2022/10/04 09:18:54;;;;;;;5.33;2.92;;;;;;;11.31;71.65;95922.64;1715296;84;21069;-69
2022/10/04 09:21:47;;;;;;;8.23;3.92;;;;;;;11.26;72.33;95920.09;1716142;83;21000;-68
2022/10/04 09:24:48;;;;;;;12.53;5.55;;;;;;;11.19;72.80;95922.41;1716287;83;21089;-68
2022/10/04 09:27:27;;;;;;;4.10;2.50;;;;;;;11.21;73.39;95925.00;1716008;84;21040;-68
2022/10/04 09:30:19;;;;;;;7.33;3.10;;;;;;;11.22;73.20;95926.77;1715849;84;21136;-68
2022/10/04 09:33:14;;;;;;;6.62;2.50;;;;;;;11.15;72.41;95927.75;1716305;84;21022;-69
2022/10/04 09:36:07;;;;;;;9.20;4.17;;;;;;;11.09;72.71;95934.01;1716570;83;21533;-68
2022/10/04 09:39:03;;;;;;;5.72;2.98;;;;;;;10.97;72.86;95940.33;1716438;84;21084;-68
2022/10/04 09:42:02;;;;;;;3.75;1.92;;;;;;;10.83;73.30;95945.83;1715058;83;21092;-68
2022/10/04 09:45:04;;;;;;;4.37;2.02;;;;;;;10.63;72.95;95957.52;1715727;83;21123;-68
2022/10/04 09:47:40;;;;;;;2.52;1.90;;;;;;;10.46;73.18;95970.92;1715846;84;21463;-68
2022/10/04 09:50:40;;;;;;;3.27;2.20;;;;;;;10.26;74.44;95983.88;1716394;84;21598;-69
2022/10/04 09:53:43;;;;;;;3.90;2.55;;;;;;;10.02;75.25;95991.59;1716198;84;21033;-69
2022/10/04 09:56:53;;;;;;;11.70;3.37;;;;;;;9.77;75.60;96000.63;1716539;84;21041;-68
2022/10/04 09:59:55;;;;;;;29.32;15.40;;;;;;;9.59;78.24;96006.48;1716235;84;21084;-69
2022/10/04 10:02:43;;;;;;;11.63;6.37;;;;;;;9.45;80.79;96009.66;1716416;83;21033;-69
2022/10/04 10:05:38;;;;;;;14.45;6.15;;;;;;;9.44;81.43;95998.25;1716160;84;21081;-68
2022/10/04 10:08:54;;;;;;;12.93;8.18;;;;;;;9.59;81.06;96005.16;1716017;84;21048;-69
2022/10/04 10:15:14;;;;;;;6.00;4.47;;;;;;;9.79;79.52;96010.27;1716429;83;21021;-69
2022/10/04 10:17:52;;;;;;;10.18;6.65;;;;;;;9.82;80.30;96016.81;1716852;83;21104;-69
2022/10/04 10:20:30;;;;;;;7.65;5.15;;;;;;;9.85;81.72;96009.33;1715919;84;21494;-69
2022/10/04 10:23:29;;;;;;;6.65;3.37;;;;;;;9.82;79.86;96010.23;1716810;83;21013;-69
2022/10/04 10:26:30;;;;;;;7.00;5.55;;;;;;;9.88;80.68;96011.52;1721956;83;21029;-69
2022/10/04 10:29:27;;;;;;;4.97;4.40;;;;;;;9.90;79.62;96016.33;1721652;83;21547;-69
2022/10/04 10:32:14;;;;;;;2.62;2.42;;;;;;;9.86;78.89;96009.33;1721748;83;21044;-69
2022/10/04 10:35:08;;;;;;;1.07;0.98;;;;;;;9.77;77.56;96012.48;1721908;83;21032;-69
2022/10/04 10:37:49;;;;;;;8.85;8.05;;;;;;;9.81;76.43;96012.90;1721825;83;21099;-69
2022/10/04 10:41:05;;;;;;;3.27;2.98;;;;;;;9.87;77.62;96007.56;1721955;83;20997;-69
2022/10/04 10:43:45;;;;;;;1.35;1.15;;;;;;;10.02;78.09;96005.22;1721314;83;21040;-69
2022/10/04 10:46:23;;;;;;;4.55;3.40;;;;;;;10.25;79.47;96008.94;1721849;83;21048;-68
2022/10/04 10:49:30;;;;;;;1.95;1.50;;;;;;;10.39;78.76;96005.75;1721069;83;21108;-68
2022/10/04 10:52:53;;;;;;;0.70;0.70;;;;;;;10.53;78.39;96003.84;1722031;82;21008;-69
2022/10/04 10:56:03;;;;;;;1.95;0.80;;;;;;;10.68;78.82;96004.06;1721553;83;21001;-69
2022/10/04 10:59:04;;;;;;;1.67;0.75;;;;;;;10.73;78.56;95995.64;1721922;82;21510;-69
2022/10/04 11:02:09;;;;;;;1.40;1.20;;;;;;;10.73;78.14;95989.05;1721949;83;21068;-68
2022/10/04 11:05:13;;;;;;;3.60;2.70;;;;;;;10.69;76.53;95997.05;1721390;83;21089;-68
2022/10/04 11:07:52;;;;;;;;;;;;;;;10.71;76.28;95998.78;1724461;83;21558;-68
2022/10/04 11:10:51;;;;;;;0.98;0.80;;;;;;;10.82;76.49;95997.31;1721617;83;20146;-68
2022/10/04 11:13:40;;;;;;;0.45;0.40;;;;;;;10.95;75.41;96000.20;1721941;83;20989;-68
2022/10/04 11:16:33;;;;;;;0.55;0.50;;;;;;;10.90;72.22;95994.56;1721742;83;21080;-68
2022/10/04 11:19:55;;;;;;;1.15;0.70;;;;;;;10.95;74.50;96000.20;1721576;83;21009;-68
2022/10/04 11:22:48;;;;;;;1.90;0.90;;;;;;;11.05;75.28;96000.50;1721438;83;21575;-68
2022/10/04 11:25:49;;;;;;;1.92;1.30;;;;;;;11.16;75.45;95999.05;1721315;83;21029;-65
2022/10/04 11:28:45;;;;;;;3.72;1.60;;;;;;;11.32;75.45;95990.44;1721452;83;20997;-68
2022/10/04 11:32:08;;;;;;;3.05;1.22;;;;;;;11.33;74.04;95999.23;1721427;83;21506;-67
2022/10/04 11:35:13;;;;;;;5.35;1.70;;;;;;;11.37;73.45;95996.53;1721875;83;21521;-69
2022/10/04 11:38:01;;;;;;;1.60;0.93;;;;;;;11.39;74.08;96000.03;1721841;83;20996;-70
2022/10/04 11:41:10;;;;;;;5.92;1.90;;;;;;;11.37;73.34;96000.95;1721452;83;21117;-70
2022/10/04 11:43:59;;;;;;;7.08;1.67;;;;;;;11.31;73.50;96000.56;1647834;87;21039;-70
2022/10/04 11:46:47;;;;;;;5.28;2.02;;;;;;;11.20;73.46;96003.38;1647710;87;21095;-70
2022/10/04 11:49:35;;;;;;;7.67;2.98;;;;;;;11.17;73.83;96004.75;1696025;83;21063;-70
2022/10/04 11:52:26;;;;;;;3.27;1.85;;;;;;;11.10;73.42;96009.69;1721560;83;21048;-70
2022/10/04 11:55:29;;;;;;;2.40;1.50;;;;;;;11.15;74.62;96009.63;1673668;83;21470;-70
2022/10/04 11:58:31;;;;;;;9.58;1.60;;;;;;;11.21;75.02;96020.09;1660821;83;21514;-70
2022/10/04 12:01:15;;;;;;;3.25;1.25;;;;;;;11.15;74.20;96017.09;1721563;83;21506;-71
2022/10/04 12:04:23;;;;;;;3.25;1.92;;;;;;;11.09;75.20;96018.94;1721831;82;21005;-72
2022/10/04 12:07:06;;;;;;;4.17;2.20;;;;;;;11.00;76.15;96014.67;1721768;83;21030;-72
2022/10/04 12:10:20;;;;;;;1.87;1.50;;;;;;;11.00;77.20;96015.53;1721705;83;21071;-72
2022/10/04 12:12:53;;;;;;;;;;;;;;;10.93;76.04;96017.83;1724359;83;20993;-73
2022/10/04 12:15:51;;;;;;;0.30;0.30;;;;;;;10.83;74.37;96013.56;1722936;82;20457;-72
2022/10/04 12:19:04;;;;;;;12.15;2.05;;;;;;;10.81;73.95;96023.30;1703346;83;21028;-72
2022/10/04 12:22:00;;;;;;;0.85;0.40;;;;;;;10.85;75.05;96013.10;1720862;82;21506;-72
2022/10/04 12:24:58;;;;;;;3.60;1.15;;;;;;;10.99;76.14;96019.08;1721419;83;21044;-74
2022/10/04 12:27:51;;;;;;;1.27;0.98;;;;;;;11.03;74.56;96019.45;1721680;82;21032;-72
2022/10/04 12:30:55;;;;;;;1.77;0.70;;;;;;;10.93;75.06;96011.68;1722154;83;21487;-72
2022/10/04 12:33:30;;;;;;;1.90;0.82;;;;;;;11.03;76.09;96010.66;1721451;83;21037;-72
2022/10/04 12:36:24;;;;;;;1.67;1.30;;;;;;;11.05;77.07;96014.16;1721820;83;21495;-72
2022/10/04 12:39:08;;;;;;;1.57;0.90;;;;;;;11.10;77.18;96017.61;1721759;83;21553;-72
2022/10/04 12:42:01;;;;;;;2.90;1.20;;;;;;;11.19;77.55;96020.58;1720276;83;21550;-73
2022/10/04 12:44:48;;;;;;;2.87;1.80;;;;;;;11.19;77.08;96015.30;1721949;83;21044;-68
2022/10/04 12:48:00;;;;;;;3.25;2.08;;;;;;;11.29;77.60;96016.02;1721813;83;21036;-71
2022/10/04 12:50:41;;;;;;;7.10;2.10;;;;;;;11.32;77.12;96008.07;1721856;83;21021;-71
2022/10/04 12:53:39;;;;;;;5.87;3.40;;;;;;;11.25;77.84;96017.39;1721781;83;20993;-71
2022/10/04 12:56:38;;;;;;;2.87;2.25;;;;;;;11.27;77.27;96014.73;1721849;83;21482;-71
2022/10/04 12:59:29;;;;;;;2.52;1.75;;;;;;;11.28;76.47;96017.79;1722068;83;21052;-71
2022/10/04 13:02:20;;;;;;;4.20;1.50;;;;;;;11.28;75.76;96024.39;1721823;83;21063;-71
2022/10/04 13:05:02;;;;;;;2.30;1.45;;;;;;;11.30;76.51;96029.21;1721076;83;21522;-71
2022/10/04 13:08:02;;;;;;;1.25;1.05;;;;;;;11.35;76.94;96030.47;1718691;83;21009;-71
2022/10/04 13:10:46;;;;;;;3.20;1.10;;;;;;;11.37;76.76;96032.20;1721802;83;21033;-71
2022/10/04 13:13:34;;;;;;;1.37;0.93;;;;;;;11.33;76.14;96032.26;1721955;83;21121;-71